Applegate, Michigan
Current Conditions -  °F | °C
As of 5:00 AM on Sunday 23 Nov 2014 (Local Time) from CYZR Reporting Station
Clear Clear  
Wind Chill: 36°   Ceiling: Unl
Heat Index: 41°   Visibility: 9mi
Dew Point: 37°   Wind: 8mph
Humidity: 87%   Direction: 190°S
Pressure: 29.92"   Gusts: NA
Location:  43.36°N, 82.64°W
Report Text: CYZR 231000Z AUTO 19007KT 9SM CLR 05/03 A2992 RMK SLP136
Loading
Personal Weather Stations






























Interactive Weather Map New forecast layout! Learn more

10-Day Weather Forecast

Advertisements
Track Severe Weather on mobile